Time;durP1;ratioP1;P1;durP2;ratioP2;P2;SDS_P1;SDS_P2;PMS_P1;PMS_P2;Temp;Humidity;BMP_temperature;BMP_pressure;BME280_temperature;BME280_humidity;BME280_pressure;Samples;Min_cycle;Max_cycle;Signal;HPM_P1;HPM_P2
2023/09/27 00:00:54;;;;;;;;;;;;;;;23.90;39.89;101231.97;5077943;28;20297;-70
2023/09/27 00:03:20;;;;;;;;;;;;;;;23.87;39.44;101232.50;5077411;28;19999;-70
2023/09/27 00:05:46;;;;;;;;;;;;;;;23.90;39.43;101230.06;5059681;28;20237;-70
2023/09/27 00:08:11;;;;;;;;;;;;;;;23.98;39.86;101233.38;5077629;28;19975;-70
2023/09/27 00:10:36;;;;;;;;;;;;;;;24.01;39.70;101227.38;5070257;28;19913;-70
2023/09/27 00:13:02;;;;;;;;;;;;;;;23.95;39.07;101223.75;5077613;28;20392;-70
2023/09/27 00:15:28;;;;;;;;;;;;;;;23.99;39.83;101227.63;5078838;28;20387;-70
2023/09/27 00:17:54;;;;;;;;;;;;;;;24.00;39.86;101228.47;5098362;28;20387;-70
2023/09/27 00:20:20;;;;;;;;;;;;;;;24.09;40.22;101226.84;5098545;28;20292;-70
2023/09/27 00:22:45;;;;;;;;;;;;;;;24.06;40.06;101225.47;5098976;28;19916;-70
2023/09/27 00:25:11;;;;;;;;;;;;;;;24.07;40.06;101221.66;5086195;28;20406;-70
2023/09/27 00:27:37;;;;;;;;;;;;;;;24.07;40.01;101218.91;5083825;28;19912;-70
2023/09/27 00:30:03;;;;;;;;;;;;;;;23.98;39.43;101219.66;5079675;28;19916;-70
2023/09/27 00:32:28;;;;;;;;;;;;;;;23.95;39.89;101226.50;5077566;28;20531;-70
2023/09/27 00:34:54;;;;;;;;;;;;;;;23.95;39.65;101210.03;5077284;28;20003;-70
2023/09/27 00:37:19;;;;;;;;;;;;;;;23.98;39.98;101206.78;5077500;28;19914;-70
2023/09/27 00:39:45;;;;;;;;;;;;;;;24.03;40.07;101195.81;5059700;28;19912;-70
2023/09/27 00:42:10;;;;;;;;;;;;;;;24.03;39.97;101198.56;5058843;28;19923;-71
2023/09/27 00:44:36;;;;;;;;;;;;;;;24.08;40.18;101195.03;5076866;28;19913;-71
2023/09/27 00:47:02;;;;;;;;;;;;;;;24.11;40.02;101189.84;5076453;28;19912;-71
2023/09/27 00:49:27;;;;;;;;;;;;;;;24.05;39.94;101192.81;5076684;28;19912;-71
2023/09/27 00:51:52;;;;;;;;;;;;;;;24.06;39.88;101197.22;5076498;28;19995;-71
2023/09/27 00:54:18;;;;;;;;;;;;;;;24.01;39.81;101195.25;5063459;28;19917;-71
2023/09/27 00:56:45;;;;;;;;;;;;;;;23.95;40.24;101191.66;5078675;28;20369;-71
2023/09/27 00:59:11;;;;;;;;;;;;;;;24.01;40.21;101189.78;5096781;28;19938;-71
2023/09/27 01:01:37;;;;;;;;;;;;;;;24.01;40.08;101184.28;5093303;28;19916;-71
2023/09/27 01:04:03;;;;;;;;;;;;;;;24.04;40.47;101189.25;5076913;28;19912;-71
2023/09/27 01:06:28;;;;;;;;;;;;;;;24.03;39.89;101181.28;5076961;28;19928;-71
2023/09/27 01:08:54;;;;;;;;;;;;;;;23.99;40.17;101191.94;5075066;28;20007;-71
2023/09/27 01:11:19;;;;;;;;;;;;;;;23.95;40.50;101185.34;5061324;28;19939;-71
2023/09/27 01:13:44;;;;;;;;;;;;;;;23.99;40.56;101180.97;5056429;28;19920;-71
2023/09/27 01:16:10;;;;;;;;;;;;;;;24.02;40.46;101180.47;5056387;28;19948;-71
2023/09/27 01:18:35;;;;;;;;;;;;;;;24.00;40.10;101173.59;5056350;28;19912;-71
2023/09/27 01:21:00;;;;;;;;;;;;;;;23.99;40.61;101174.69;5046725;28;19923;-70
2023/09/27 01:23:26;;;;;;;;;;;;;;;24.01;40.35;101164.25;5076349;28;19965;-71
2023/09/27 01:25:56;;;;;;;;;;;;;;;23.91;40.01;101162.28;5058556;28;20262;-71
2023/09/27 01:28:22;;;;;;;;;;;;;;;23.86;40.09;101159.50;5088607;28;19912;-71
2023/09/27 01:30:47;;;;;;;;;;;;;;;23.82;40.50;101163.88;5096549;28;19919;-71
2023/09/27 01:33:13;;;;;;;;;;;;;;;23.83;40.37;101160.88;5096583;28;19912;-70
2023/09/27 01:35:39;;;;;;;;;;;;;;;23.81;40.39;101165.81;5096877;28;19950;-70
2023/09/27 01:38:06;;;;;;;;;;;;;;;23.83;40.71;101155.41;5096950;28;19961;-70
2023/09/27 01:40:31;;;;;;;;;;;;;;;23.85;40.02;101157.88;5096864;28;19912;-70
2023/09/27 01:43:00;;;;;;;;;;;;;;;23.83;40.18;101149.06;5073474;28;19913;-70
2023/09/27 01:45:26;;;;;;;;;;;;;;;23.84;40.51;101153.47;5077109;28;19913;-70
2023/09/27 01:47:51;;;;;;;;;;;;;;;23.86;40.52;101146.63;5076336;28;20305;-70
2023/09/27 01:50:21;;;;;;;;;;;;;;;23.86;40.66;101149.34;5076685;28;19942;-70
2023/09/27 01:52:50;;;;;;;;;;;;;;;23.86;40.50;101143.06;5076610;28;20011;-70
2023/09/27 01:55:15;;;;;;;;;;;;;;;23.74;40.15;101135.81;5080398;28;19947;-71
2023/09/27 01:57:41;;;;;;;;;;;;;;;23.78;40.12;101133.38;5096221;28;19912;-71
2023/09/27 02:00:11;;;;;;;;;;;;;;;23.76;40.19;101121.84;5078733;28;19912;-71
2023/09/27 02:02:56;;;;;;;;;;;;;;;23.75;40.71;101123.78;5048313;28;19917;-71
2023/09/27 02:05:21;;;;;;;;;;;;;;;23.74;40.41;101113.06;5080403;28;19912;-71
2023/09/27 02:07:47;;;;;;;;;;;;;;;23.69;40.58;101111.09;5079283;28;20007;-72
2023/09/27 02:10:12;;;;;;;;;;;;;;;23.66;40.36;101100.69;5090862;28;19912;-71
2023/09/27 02:12:37;;;;;;;;;;;;;;;23.65;40.52;101100.94;5076538;28;19952;-70
2023/09/27 02:15:06;;;;;;;;;;;;;;;23.66;40.84;101097.09;5075934;28;20276;-70
2023/09/27 02:17:31;;;;;;;;;;;;;;;23.70;40.52;101095.47;5083471;28;19913;-70
2023/09/27 02:19:57;;;;;;;;;;;;;;;23.72;40.45;101096.06;5075534;28;20288;-70
2023/09/27 02:22:23;;;;;;;;;;;;;;;23.78;40.70;101100.47;5075457;28;20381;-70
2023/09/27 02:24:48;;;;;;;;;;;;;;;23.71;40.37;101095.22;5075116;28;19912;-70
2023/09/27 02:27:14;;;;;;;;;;;;;;;23.69;41.09;101094.66;5078299;28;19912;-70
2023/09/27 02:29:42;;;;;;;;;;;;;;;23.73;40.89;101095.75;5080518;28;19934;-70
2023/09/27 02:32:07;;;;;;;;;;;;;;;23.62;41.09;101096.00;5074859;28;19950;-70
2023/09/27 02:34:36;;;;;;;;;;;;;;;23.62;41.63;101101.47;5075151;28;19913;-70
2023/09/27 02:37:02;;;;;;;;;;;;;;;23.53;41.21;101099.25;5075307;28;19962;-70
2023/09/27 02:39:28;;;;;;;;;;;;;;;23.54;41.47;101092.66;5075051;28;19912;-70
2023/09/27 02:41:55;;;;;;;;;;;;;;;23.60;41.67;101092.69;5074985;28;19916;-70
2023/09/27 02:44:21;;;;;;;;;;;;;;;23.61;41.91;101084.19;5075126;28;20345;-70
2023/09/27 02:46:46;;;;;;;;;;;;;;;23.63;41.83;101087.50;5075063;28;19924;-70
2023/09/27 02:49:11;;;;;;;;;;;;;;;23.58;41.43;101076.50;5075106;28;19916;-70
2023/09/27 02:51:37;;;;;;;;;;;;;;;23.55;41.52;101079.75;5056913;28;19958;-70
2023/09/27 02:54:02;;;;;;;;;;;;;;;23.55;41.69;101077.00;5074503;28;19936;-70
2023/09/27 02:56:28;;;;;;;;;;;;;;;23.55;41.50;101072.38;5090127;28;20007;-70
2023/09/27 02:58:53;;;;;;;;;;;;;;;23.55;41.66;101064.16;5095094;28;20407;-70
2023/09/27 03:01:18;;;;;;;;;;;;;;;23.61;41.64;101066.94;5077162;28;19920;-70
2023/09/27 03:03:44;;;;;;;;;;;;;;;23.65;41.77;101079.84;5074459;28;20265;-70
2023/09/27 03:06:15;;;;;;;;;;;;;;;23.67;41.53;101069.41;5074854;28;19912;-70
2023/09/27 03:08:43;;;;;;;;;;;;;;;23.60;42.01;101079.78;5074174;28;20308;-70
2023/09/27 03:11:12;;;;;;;;;;;;;;;23.45;42.15;101074.22;5061418;28;19963;-70
2023/09/27 03:13:37;;;;;;;;;;;;;;;23.53;42.05;101068.22;5063361;28;19913;-70
2023/09/27 03:16:04;;;;;;;;;;;;;;;23.50;41.79;101066.03;5080251;28;19912;-70
2023/09/27 03:18:29;;;;;;;;;;;;;;;23.46;42.05;101063.00;5094134;28;19927;-70
2023/09/27 03:20:55;;;;;;;;;;;;;;;23.44;42.26;101073.41;5093827;28;19920;-71
2023/09/27 03:23:21;;;;;;;;;;;;;;;23.47;42.09;101067.38;5059959;28;19919;-71
2023/09/27 03:25:49;;;;;;;;;;;;;;;23.50;42.31;101063.31;5076491;28;19916;-71
2023/09/27 03:28:14;;;;;;;;;;;;;;;23.53;42.29;101046.31;5083517;28;19920;-71
2023/09/27 03:30:39;;;;;;;;;;;;;;;23.65;42.04;101044.19;5039844;28;19913;-71
2023/09/27 03:33:05;;;;;;;;;;;;;;;23.63;42.44;101037.31;5073702;28;19987;-70
2023/09/27 03:35:31;;;;;;;;;;;;;;;23.61;42.44;101036.78;5056314;28;19958;-71
2023/09/27 03:37:57;;;;;;;;;;;;;;;23.64;42.05;101028.00;5056246;28;19916;-71
2023/09/27 03:40:22;;;;;;;;;;;;;;;23.70;42.22;101018.69;5057525;28;19912;-70
2023/09/27 03:42:47;;;;;;;;;;;;;;;23.68;42.30;101020.88;5074407;28;20307;-70
2023/09/27 03:45:14;;;;;;;;;;;;;;;23.71;42.13;101006.63;5073947;28;20376;-70
2023/09/27 03:47:40;;;;;;;;;;;;;;;23.77;42.24;101002.81;5074043;28;19974;-70
2023/09/27 03:50:05;;;;;;;;;;;;;;;23.78;42.26;101007.22;5074257;28;19947;-70
2023/09/27 03:52:31;;;;;;;;;;;;;;;23.82;42.23;101007.53;5073843;28;19967;-70
2023/09/27 03:54:56;;;;;;;;;;;;;;;23.82;42.09;101005.59;5073385;28;19920;-70
2023/09/27 03:57:21;;;;;;;;;;;;;;;23.81;42.16;101006.72;5074173;28;19956;-70
2023/09/27 03:59:46;;;;;;;;;;;;;;;23.84;42.39;101008.09;5074173;28;19916;-70
2023/09/27 04:02:12;;;;;;;;;;;;;;;23.82;42.63;101011.09;5064654;28;19916;-70
2023/09/27 04:04:37;;;;;;;;;;;;;;;23.82;42.20;101005.59;5053412;28;19958;-70
2023/09/27 04:07:02;;;;;;;;;;;;;;;23.85;42.24;101005.06;5053655;28;19913;-70
2023/09/27 04:09:28;;;;;;;;;;;;;;;23.83;42.55;101003.69;5059153;28;19932;-70
2023/09/27 04:11:53;;;;;;;;;;;;;;;23.98;42.44;101003.75;5054505;28;20277;-70
2023/09/27 04:14:18;;;;;;;;;;;;;;;23.85;42.43;101002.34;5053623;28;19917;-70
2023/09/27 04:16:43;;;;;;;;;;;;;;;23.85;42.54;101001.53;5076751;28;19912;-70
2023/09/27 04:19:09;;;;;;;;;;;;;;;23.82;42.45;100999.31;5094196;28;19912;-70
2023/09/27 04:21:34;;;;;;;;;;;;;;;23.76;42.71;100999.25;5075269;28;19990;-70
2023/09/27 04:23:59;;;;;;;;;;;;;;;23.70;42.66;100994.00;5093234;28;19958;-70
2023/09/27 04:26:25;;;;;;;;;;;;;;;23.61;43.07;100988.22;5093270;28;19985;-70
2023/09/27 04:28:51;;;;;;;;;;;;;;;23.60;43.08;100988.50;5076714;28;19918;-70
2023/09/27 04:31:18;;;;;;;;;;;;;;;23.63;43.03;100985.22;5072757;28;19962;-70
2023/09/27 04:33:44;;;;;;;;;;;;;;;23.60;43.46;100980.25;5072744;28;19912;-70
2023/09/27 04:36:17;;;;;;;;;;;;;;;23.41;43.66;100986.22;5073067;28;19912;-70
2023/09/27 04:38:44;;;;;;;;;;;;;;;23.51;43.61;100989.00;5073213;28;19917;-70
2023/09/27 04:41:09;;;;;;;;;;;;;;;23.53;43.62;100983.25;5073121;28;19927;-70
2023/09/27 04:43:34;;;;;;;;;;;;;;;23.50;43.22;100962.69;5073985;28;19916;-70
2023/09/27 04:45:59;;;;;;;;;;;;;;;23.48;43.74;100953.91;5060271;28;19912;-70
2023/09/27 04:48:25;;;;;;;;;;;;;;;23.44;43.55;100949.22;5077494;28;19912;-70
2023/09/27 04:50:50;;;;;;;;;;;;;;;23.55;43.56;100965.44;5077633;28;20360;-70
2023/09/27 04:53:16;;;;;;;;;;;;;;;23.54;44.00;100962.97;5077364;28;19912;-70
2023/09/27 04:55:42;;;;;;;;;;;;;;;23.50;43.91;100951.72;5085317;28;19918;-70
2023/09/27 04:58:08;;;;;;;;;;;;;;;23.50;44.21;100953.63;5097242;28;19916;-70
2023/09/27 05:00:33;;;;;;;;;;;;;;;23.53;44.34;100940.22;5097046;28;19912;-70
2023/09/27 05:02:58;;;;;;;;;;;;;;;23.54;43.91;100939.09;5060001;28;20019;-70
2023/09/27 05:05:23;;;;;;;;;;;;;;;23.53;44.05;100953.94;5059285;28;20377;-70
2023/09/27 05:07:49;;;;;;;;;;;;;;;23.52;44.43;100965.97;5075976;28;19912;-70
2023/09/27 05:10:14;;;;;;;;;;;;;;;23.50;44.13;100962.69;5070826;28;20019;-70
2023/09/27 05:12:40;;;;;;;;;;;;;;;23.51;44.37;100963.50;5038344;28;19913;-70
2023/09/27 05:15:06;;;;;;;;;;;;;;;23.50;44.73;100967.34;5056207;28;20323;-70
2023/09/27 05:17:31;;;;;;;;;;;;;;;23.49;44.48;100971.16;5092476;28;19916;-70
2023/09/27 05:19:56;;;;;;;;;;;;;;;23.50;44.76;100978.31;5096322;28;20467;-70
2023/09/27 05:22:22;;;;;;;;;;;;;;;23.54;44.66;100980.22;5078219;28;19958;-70
2023/09/27 05:24:47;;;;;;;;;;;;;;;23.55;44.58;100984.63;5096105;28;19916;-70
2023/09/27 05:27:15;;;;;;;;;;;;;;;23.46;44.58;100974.44;5096252;28;19919;-70
2023/09/27 05:29:41;;;;;;;;;;;;;;;23.39;44.77;100980.19;5076454;28;19913;-70
2023/09/27 05:32:07;;;;;;;;;;;;;;;23.26;45.47;100973.25;5058198;28;19912;-71
2023/09/27 05:34:33;;;;;;;;;;;;;;;23.28;45.82;100957.38;5075812;28;20032;-71
2023/09/27 05:36:59;;;;;;;;;;;;;;;23.18;45.90;100958.16;5075838;28;19916;-71
2023/09/27 05:39:25;;;;;;;;;;;;;;;23.15;46.12;100960.59;5076069;28;20265;-71
2023/09/27 05:41:51;;;;;;;;;;;;;;;23.16;45.94;100952.13;5075635;28;19916;-71
2023/09/27 05:44:16;;;;;;;;;;;;;;;23.13;45.74;100966.34;5077238;28;19923;-71
2023/09/27 05:46:41;;;;;;;;;;;;;;;23.13;46.29;100965.53;5078543;28;19913;-71
2023/09/27 05:49:09;;;;;;;;;;;;;;;23.07;45.91;100967.41;5077866;28;19912;-71
2023/09/27 05:51:35;;;;;;;;;;;;;;;23.03;46.47;100969.00;5059435;28;20018;-71
2023/09/27 05:54:00;;;;;;;;;;;;;;;23.04;46.18;100964.38;5075612;28;19947;-71
2023/09/27 05:56:27;;;;;;;;;;;;;;;23.02;46.50;100944.59;5075461;28;19912;-71
2023/09/27 05:58:53;;;;;;;;;;;;;;;23.03;46.62;100944.34;5076065;28;19913;-71
2023/09/27 06:01:19;;;;;;;;;;;;;;;23.10;46.19;100946.88;5075498;28;20281;-71
2023/09/27 06:03:45;;;;;;;;;;;;;;;23.17;46.43;100941.97;5076334;28;19951;-71
2023/09/27 06:06:12;;;;;;;;;;;;;;;23.21;46.06;100934.03;5076166;28;19912;-71
2023/09/27 06:08:37;;;;;;;;;;;;;;;23.24;46.22;100950.78;5075379;28;19967;-71
2023/09/27 06:11:03;;;;;;;;;;;;;;;23.12;46.07;100944.69;5063254;28;19951;-71
2023/09/27 06:13:28;;;;;;;;;;;;;;;23.10;46.21;100930.41;5055105;28;19917;-71
2023/09/27 06:15:58;;;;;;;;;;;;;;;23.16;46.60;100905.53;5064591;28;20321;-71
2023/09/27 06:18:24;;;;;;;;;;;;;;;23.18;46.60;100888.84;5095254;28;19986;-71
2023/09/27 06:20:50;;;;;;;;;;;;;;;23.23;46.68;100880.59;5095020;28;20010;-71
2023/09/27 06:23:15;;;;;;;;;;;;;;;23.28;46.58;100874.34;5094963;28;19983;-71
2023/09/27 06:25:43;;;;;;;;;;;;;;;23.33;46.29;100866.94;5059361;28;20379;-71
2023/09/27 06:28:11;;;;;;;;;;;;;;;23.38;46.06;100879.84;5082484;28;19951;-71
2023/09/27 06:30:37;;;;;;;;;;;;;;;23.30;46.39;100894.88;5056617;28;19912;-71
2023/09/27 06:33:02;;;;;;;;;;;;;;;23.31;46.22;100904.78;5074273;28;20404;-71
2023/09/27 06:35:28;;;;;;;;;;;;;;;23.36;46.25;100913.03;5074109;28;20296;-71
2023/09/27 06:37:54;;;;;;;;;;;;;;;23.39;46.09;100909.72;5074377;28;19912;-71
2023/09/27 06:40:22;;;;;;;;;;;;;;;23.41;45.86;100916.88;5074933;28;19943;-71
2023/09/27 06:42:48;;;;;;;;;;;;;;;23.53;45.88;100922.91;5040303;28;20013;-71
2023/09/27 06:45:14;;;;;;;;;;;;;;;23.55;45.96;100928.97;5056774;28;20391;-71
2023/09/27 06:47:41;;;;;;;;;;;;;;;23.59;45.68;100930.09;5074848;28;19916;-71
2023/09/27 06:50:08;;;;;;;;;;;;;;;23.58;45.80;100934.72;5057509;28;19948;-71
2023/09/27 06:52:34;;;;;;;;;;;;;;;23.59;45.68;100930.09;5057154;28;19919;-71
2023/09/27 06:55:00;;;;;;;;;;;;;;;23.61;45.75;100930.66;5074553;28;19912;-71
2023/09/27 06:57:25;;;;;;;;;;;;;;;23.58;45.60;100918.28;5075048;28;19912;-71
2023/09/27 06:59:51;;;;;;;;;;;;;;;23.57;46.11;100922.13;5055595;28;19966;-71
2023/09/27 07:02:16;;;;;;;;;;;;;;;23.53;45.85;100929.25;5054406;28;19924;-71
2023/09/27 07:04:42;;;;;;;;;;;;;;;23.52;45.87;100937.75;5054127;28;20266;-71
2023/09/27 07:07:08;;;;;;;;;;;;;;;23.48;46.11;100947.59;5052806;28;19919;-71
2023/09/27 07:09:33;;;;;;;;;;;;;;;23.48;46.21;100955.81;5053811;28;19929;-71
2023/09/27 07:12:02;;;;;;;;;;;;;;;23.41;46.62;100945.09;5054006;28;20281;-71
2023/09/27 07:14:28;;;;;;;;;;;;;;;23.42;46.49;100946.75;5054064;28;19995;-71
2023/09/27 07:16:53;;;;;;;;;;;;;;;23.34;47.30;100936.28;5079597;28;20006;-71
2023/09/27 07:19:19;;;;;;;;;;;;;;;23.39;47.09;100939.88;5093908;28;20373;-71
2023/09/27 07:21:44;;;;;;;;;;;;;;;23.28;47.29;100938.19;5078499;28;19966;-71
2023/09/27 07:24:10;;;;;;;;;;;;;;;23.23;47.33;100931.84;5073901;28;19955;-71
2023/09/27 07:26:36;;;;;;;;;;;;;;;23.25;47.69;100935.16;5074022;28;19913;-71
2023/09/27 07:29:02;;;;;;;;;;;;;;;23.29;47.75;100931.63;5074841;28;19978;-71
2023/09/27 07:31:27;;;;;;;;;;;;;;;23.19;48.45;100950.75;5074380;28;20302;-71
2023/09/27 07:33:55;;;;;;;;;;;;;;;23.09;48.45;100943.31;5055448;28;19912;-70
2023/09/27 07:36:21;;;;;;;;;;;;;;;23.08;48.91;100938.91;5073524;28;19951;-69
2023/09/27 07:38:47;;;;;;;;;;;;;;;23.06;48.99;100940.28;5073362;28;19920;-69
2023/09/27 07:41:14;;;;;;;;;;;;;;;22.99;49.01;100941.31;5073492;28;20293;-69
2023/09/27 07:43:39;;;;;;;;;;;;;;;23.06;48.75;100935.59;5073207;28;20361;-69
2023/09/27 07:46:06;;;;;;;;;;;;;;;23.08;48.58;100936.16;5073225;28;19919;-69
2023/09/27 07:48:32;;;;;;;;;;;;;;;23.13;48.85;100933.47;5073596;28;19935;-68
2023/09/27 07:50:58;;;;;;;;;;;;;;;23.13;48.68;100932.63;5073880;28;20369;-70
2023/09/27 07:53:24;;;;;;;;;;;;;;;23.16;48.33;100918.38;5073451;28;19919;-66
2023/09/27 07:55:51;;;;;;;;;;;;;;;23.18;48.41;100906.09;5074761;28;19912;-66
2023/09/27 07:58:19;;;;;;;;;;;;;;;23.27;48.76;100925.59;5092821;28;20391;-66
2023/09/27 08:00:44;;;;;;;;;;;;;;;23.30;48.59;100946.16;5092939;28;19912;-66
2023/09/27 08:03:10;;;;;;;;;;;;;;;23.37;48.01;100931.09;5075678;28;19923;-66
2023/09/27 08:05:42;;;;;;;;;;;;;;;23.35;48.18;100930.53;5072833;28;19999;-66
2023/09/27 08:08:09;;;;;;;;;;;;;;;23.25;48.09;100935.97;5072931;28;20403;-66
2023/09/27 08:10:34;;;;;;;;;;;;;;;23.35;48.15;100930.53;5065100;28;19935;-66
2023/09/27 08:13:00;;;;;;;;;;;;;;;23.27;48.46;100932.97;5053159;28;20361;-66
2023/09/27 08:15:25;;;;;;;;;;;;;;;23.32;48.45;100938.47;5054416;28;20262;-66
2023/09/27 08:17:50;;;;;;;;;;;;;;;23.36;48.41;100925.88;5078503;28;19962;-66
2023/09/27 08:20:18;;;;;;;;;;;;;;;23.55;48.20;100921.59;5076600;28;19924;-66
2023/09/27 08:22:43;;;;;;;;;;;;;;;23.61;47.95;100919.69;5076548;28;19919;-66
2023/09/27 08:25:14;;;;;;;;;;;;;;;23.62;47.93;100923.22;5076382;28;19966;-66
2023/09/27 08:27:39;;;;;;;;;;;;;;;23.62;47.97;100920.50;5076641;28;20295;-66
2023/09/27 08:30:05;;;;;;;;;;;;;;;23.63;47.50;100922.16;5076688;28;19912;-66
2023/09/27 08:32:31;;;;;;;;;;;;;;;23.59;47.78;100921.88;5076582;28;20280;-67
2023/09/27 08:34:56;;;;;;;;;;;;;;;23.58;48.07;100918.28;5076732;28;19913;-66
2023/09/27 08:37:22;;;;;;;;;;;;;;;23.64;47.94;100921.03;5076535;28;19912;-66
2023/09/27 08:39:47;;;;;;;;;;;;;;;23.56;48.02;100930.63;5076655;28;19916;-66
2023/09/27 08:42:13;;;;;;;;;;;;;;;23.41;47.92;100927.84;5076171;28;20007;-66
2023/09/27 08:44:39;;;;;;;;;;;;;;;23.60;48.08;100934.47;5076622;28;19912;-66
2023/09/27 08:47:05;;;;;;;;;;;;;;;23.72;47.66;100934.25;5076138;28;20007;-66
2023/09/27 08:49:31;;;;;;;;;;;;;;;23.69;47.61;100934.78;5076331;28;20003;-66
2023/09/27 08:51:57;;;;;;;;;;;;;;;23.70;47.50;100937.25;5058160;28;19995;-66
2023/09/27 08:54:23;;;;;;;;;;;;;;;23.73;47.60;100941.38;5075617;28;19913;-66
2023/09/27 08:56:50;;;;;;;;;;;;;;;23.63;46.84;100938.59;5076083;28;19916;-66
2023/09/27 08:59:16;;;;;;;;;;;;;;;23.64;47.37;100938.31;5076164;28;19912;-66
2023/09/27 09:01:42;;;;;;;;;;;;;;;23.73;46.93;100939.44;5076007;28;19916;-66
2023/09/27 09:04:08;;;;;;;;;;;;;;;23.75;45.96;100940.00;5058021;28;19912;-66
2023/09/27 09:06:34;;;;;;;;;;;;;;;23.55;46.73;100938.03;5076129;28;20348;-66
2023/09/27 09:09:03;;;;;;;;;;;;;;;23.75;46.83;100951.00;5075895;28;20001;-66
2023/09/27 09:11:29;;;;;;;;;;;;;;;23.87;46.56;100959.00;5060537;28;19967;-66
2023/09/27 09:13:54;;;;;;;;;;;;;;;23.84;46.68;100950.47;5068702;28;19913;-66
2023/09/27 09:16:23;;;;;;;;;;;;;;;23.75;46.16;100953.72;5084181;28;19912;-66
2023/09/27 09:18:51;;;;;;;;;;;;;;;23.65;46.03;100958.34;5096180;28;20369;-66
2023/09/27 09:21:18;;;;;;;;;;;;;;;23.68;46.41;100952.31;5081048;28;19935;-66
2023/09/27 09:23:48;;;;;;;;;;;;;;;23.82;46.40;100941.69;5075707;28;19983;-66
2023/09/27 09:26:24;;;;;;;;;;;;;;;23.88;46.00;100937.88;5075696;28;19919;-66
2023/09/27 09:28:56;;;;;;;;;;;;;;;24.04;45.82;100938.72;5083779;28;19916;-66
2023/09/27 09:31:22;;;;;;;;;;;;;;;24.12;45.54;100935.44;5074392;28;19975;-66
2023/09/27 09:34:01;;;;;;;;;;;;;;;23.88;45.30;100935.13;5075867;28;19955;-66
2023/09/27 09:36:27;;;;;;;;;;;;;;;24.06;46.16;100940.09;5075717;28;19912;-66
2023/09/27 09:38:52;;;;;;;;;;;;;;;24.20;45.48;100943.13;5075867;28;19966;-66
2023/09/27 09:41:17;;;;;;;;;;;;;;;24.12;45.52;100941.72;5075413;28;20470;-66
2023/09/27 09:43:43;;;;;;;;;;;;;;;24.04;45.26;100949.69;5075646;28;19919;-66
2023/09/27 09:46:08;;;;;;;;;;;;;;;23.99;45.56;100933.22;5075138;28;19916;-66
2023/09/27 09:48:34;;;;;;;;;;;;;;;23.88;45.75;100937.88;5075150;28;19919;-66
2023/09/27 09:51:03;;;;;;;;;;;;;;;23.92;45.95;100942.56;5075184;28;19916;-66
2023/09/27 09:53:28;;;;;;;;;;;;;;;23.90;46.04;100944.75;5073546;28;19948;-66
2023/09/27 09:55:55;;;;;;;;;;;;;;;23.86;45.80;100935.38;5084731;28;19955;-66
2023/09/27 09:58:20;;;;;;;;;;;;;;;23.92;45.92;100933.47;5068694;28;19913;-66
2023/09/27 10:00:49;;;;;;;;;;;;;;;23.93;46.30;100949.66;5054640;28;19935;-66
2023/09/27 10:03:20;;;;;;;;;;;;;;;23.85;45.93;100946.66;5054635;28;19986;-67
2023/09/27 10:05:45;;;;;;;;;;;;;;;23.75;45.99;100944.66;5054802;28;19955;-66
2023/09/27 10:08:12;;;;;;;;;;;;;;;23.68;46.11;100953.16;5054742;28;19921;-66
2023/09/27 10:10:37;;;;;;;;;;;;;;;23.74;46.46;100940.28;5062301;28;19920;-66
2023/09/27 10:13:05;;;;;;;;;;;;;;;23.67;46.26;100947.94;5054853;28;19912;-66
2023/09/27 10:15:33;;;;;;;;;;;;;;;23.80;46.60;100941.97;5057550;28;20372;-66
2023/09/27 10:18:17;;;;;;;;;;;;;;;23.87;46.56;100939.78;5073117;28;20276;-66
2023/09/27 10:21:00;;;;;;;;;;;;;;;24.08;45.95;100940.63;5074442;28;19918;-66
2023/09/27 10:23:26;;;;;;;;;;;;;;;24.04;45.94;100935.97;5074410;28;19938;-66
2023/09/27 10:25:51;;;;;;;;;;;;;;;24.09;45.94;100939.56;5074481;28;20349;-66
2023/09/27 10:28:16;;;;;;;;;;;;;;;24.06;45.99;100936.53;5082470;28;19923;-66
2023/09/27 10:30:41;;;;;;;;;;;;;;;24.20;46.20;100943.13;5074506;28;20288;-66
2023/09/27 10:33:13;;;;;;;;;;;;;;;24.17;45.62;100942.84;5074251;28;19919;-66
2023/09/27 10:35:38;;;;;;;;;;;;;;;24.06;45.72;100948.31;5074207;28;20273;-66
2023/09/27 10:38:09;;;;;;;;;;;;;;;23.91;45.88;100954.59;5074221;28;19912;-66
2023/09/27 10:40:42;;;;;;;;;;;;;;;23.95;45.60;100954.88;5074368;28;19916;-66
2023/09/27 10:43:07;;;;;;;;;;;;;;;23.83;46.19;100949.66;5073674;28;19923;-66
2023/09/27 10:45:33;;;;;;;;;;;;;;;23.89;45.92;100947.75;5056221;28;20007;-66
2023/09/27 10:48:18;;;;;;;;;;;;;;;23.88;46.28;100952.41;5074006;28;20299;-66
2023/09/27 10:50:53;;;;;;;;;;;;;;;24.03;45.85;100946.13;5074236;28;19974;-66
2023/09/27 10:53:18;;;;;;;;;;;;;;;24.06;45.91;100953.00;5073929;28;19955;-66
2023/09/27 10:55:44;;;;;;;;;;;;;;;24.19;45.56;100960.69;5082345;28;19962;-66
2023/09/27 10:58:15;;;;;;;;;;;;;;;24.23;45.80;100947.25;5094102;28;19916;-66
2023/09/27 11:00:49;;;;;;;;;;;;;;;24.24;45.88;100948.91;5094011;28;19919;-66
2023/09/27 11:03:16;;;;;;;;;;;;;;;24.25;45.36;100945.03;5076355;28;20341;-66
2023/09/27 11:05:41;;;;;;;;;;;;;;;24.29;45.67;100946.16;5073775;28;19916;-66
2023/09/27 11:08:06;;;;;;;;;;;;;;;24.43;45.41;100946.44;5073732;28;20342;-66
2023/09/27 11:10:33;;;;;;;;;;;;;;;24.44;45.18;100948.91;5066310;28;19975;-67
2023/09/27 11:13:18;;;;;;;;;;;;;;;24.45;45.40;100950.53;5061748;28;19923;-67
2023/09/27 11:15:44;;;;;;;;;;;;;;;24.33;45.09;100939.00;5072877;28;19912;-67
2023/09/27 11:18:10;;;;;;;;;;;;;;;24.57;45.17;100943.97;5073597;28;19924;-66
2023/09/27 11:20:36;;;;;;;;;;;;;;;24.88;45.37;100929.09;5073899;28;19962;-66
2023/09/27 11:23:02;;;;;;;;;;;;;;;24.83;44.05;100940.13;5073465;28;19917;-66
2023/09/27 11:25:28;;;;;;;;;;;;;;;24.97;44.34;100934.84;5073651;28;19957;-66
2023/09/27 11:27:54;;;;;;;;;;;;;;;25.03;43.72;100935.66;5069923;28;19912;-66
2023/09/27 11:30:26;;;;;;;;;;;;;;;25.26;43.37;100926.00;5073478;28;19916;-66
2023/09/27 11:32:52;;;;;;;;;;;;;;;25.43;43.65;100936.66;5073358;28;19913;-66
2023/09/27 11:35:20;;;;;;;;;;;;;;;25.49;43.13;100932.78;5073284;28;19916;-66
2023/09/27 11:37:47;;;;;;;;;;;;;;;25.25;43.30;100941.66;5073174;28;19913;-66
2023/09/27 11:40:13;;;;;;;;;;;;;;;25.40;42.79;100935.28;5061769;28;19913;-66
2023/09/27 11:42:38;;;;;;;;;;;;;;;25.47;42.47;100935.78;5053381;28;19971;-66
2023/09/27 11:45:05;;;;;;;;;;;;;;;25.37;42.46;100935.00;5053017;28;19913;-66
2023/09/27 11:47:31;;;;;;;;;;;;;;;25.48;42.43;100937.47;5069193;28;19920;-66
2023/09/27 11:49:56;;;;;;;;;;;;;;;25.70;42.36;100936.22;5073270;28;19919;-66
2023/09/27 11:52:22;;;;;;;;;;;;;;;25.58;42.17;100933.81;5073387;28;19913;-66
2023/09/27 11:54:47;;;;;;;;;;;;;;;25.56;42.19;100935.22;5076451;28;19913;-66
2023/09/27 11:57:12;;;;;;;;;;;;;;;25.68;42.58;100939.25;5097184;28;19919;-66
2023/09/27 11:59:38;;;;;;;;;;;;;;;25.79;41.93;100937.28;5097099;28;19919;-67
2023/09/27 12:02:03;;;;;;;;;;;;;;;26.05;41.47;100931.63;5081662;28;19924;-66
2023/09/27 12:04:28;;;;;;;;;;;;;;;26.32;41.59;100942.19;5057465;28;19919;-66
2023/09/27 12:06:54;;;;;;;;;;;;;;;26.49;41.86;100932.69;5057026;28;20281;-67
2023/09/27 12:09:19;;;;;;;;;;;;;;;26.67;41.00;100933.91;5065276;28;20029;-66
2023/09/27 12:11:44;;;;;;;;;;;;;;;26.98;41.27;100934.41;5076706;28;19913;-66
2023/09/27 12:14:10;;;;;;;;;;;;;;;27.19;40.27;100935.81;5076935;28;19947;-67
2023/09/27 12:16:35;;;;;;;;;;;;;;;27.43;40.23;100935.00;5087615;28;19919;-66
2023/09/27 12:19:00;;;;;;;;;;;;;;;27.70;39.08;100939.06;5097228;28;20261;-66
2023/09/27 12:21:26;;;;;;;;;;;;;;;27.86;39.25;100945.16;5097261;28;19916;-67
2023/09/27 12:23:51;;;;;;;;;;;;;;;28.02;37.90;100938.34;5079125;28;20011;-67
2023/09/27 12:26:16;;;;;;;;;;;;;;;28.44;38.07;100941.28;5076634;28;19917;-67
2023/09/27 12:28:42;;;;;;;;;;;;;;;28.72;38.70;100943.00;5085097;28;19978;-67
2023/09/27 12:31:08;;;;;;;;;;;;;;;29.00;37.20;100948.56;5076462;28;19912;-67